Maseru Mia, Lesotho

4:10 PM SAST on October 22, 2014 (GMT +0200)
Moshoeshoe I International | Change Station
CLOSE
Current Station
Airport
Location: Maseru,
Elevation: 5351 ft
Nearby Weather Stations

Elev 5351 ft 29.46 °S, 27.55 °E | Updated 10 minutes ago

Scattered Clouds
Scattered Clouds
82 °F
Feels Like 82 °F
N
4
Wind Variable Wind from WSW

Today
High -- | Low -- °F
--% Chance of Precip.
Yesterday
High -- | Low -- °F
Precip. -- in
5:25 AM 6:23 PM
Waning Crescent, 2% visible
Pressure 30.21 in
Visibility 6.2 miles
Clouds Scattered Clouds 3000 ft
Dew Point 36 °F
Humidity 19%
Rainfall 0.00 in
Snow Depth Not available.
UV 3 out of 12
Pollen Not available.
Air Quality Not available.
Flu Activity Not available.
METAR FXMM 221400Z 25003KT 9999 SCT030 28/02 Q1023 NOSIG

More Conditions Fewer Conditions

Pressure 30.21 in
Visibility 6.2 miles
Clouds Scattered Clouds 3000 ft
Dew Point 36 °F
Humidity 19%
Rainfall 0.00 in
Snow Depth Not available.
UV 3 out of 12
Pollen Not available.
Air Quality Not available.
Flu Activity Not available.
METAR FXMM 221400Z 25003KT 9999 SCT030 28/02 Q1023 NOSIG

More Conditions Fewer Conditions

10-Day Weather Forecast

Almanac

Astronomy

Oct. 22, 2014 Rise Set
Actual Time 5:25 AM SAST 6:23 PM SAST
Civil Twilight 5:00 AM SAST 6:48 PM SAST
Nautical Twilight 4:31 AM SAST 7:17 PM SAST
Astronomical Twilight 4:01 AM SAST 7:47 PM SAST
Moon 4:26 AM SAST 5:11 PM SAST
Length of Visible Light 13h 47m
Length of Day
12h 58m
Tomorrow will be 1m 41s longer.
Waning Crescent, 2% of the Moon is Illuminated
Today
Waning Crescent
Oct 23
New
Oct 30
First Quarter
Nov 6
Full
Nov 14
Last Quarter

Yesterday's Extremes

Country Highs Country Lows

Community

WunderPhotos

Upload Photos

1,763,927 photos uploaded!

WunderBlogs® & News

Nearby

Snow Depth

Not available.

Earthquake Activity

City Distance Mag. Time & Date
No recent earthquake activity has been reported nearby.
Minimum magnitude displayed is 2.5.

Coastal Water Temperatures

Place Temperature
No Stations Reporting

Nearby Weather Stations